createdAt,value
2018-09-02T00:00:32.779Z,9.50
2018-09-02T00:03:01.725Z,9.37
2018-09-02T00:05:29.515Z,9.57
2018-09-02T00:07:58.392Z,10.10
2018-09-02T00:10:26.199Z,8.90
2018-09-02T00:12:54.359Z,9.60
2018-09-02T00:15:21.994Z,8.90
2018-09-02T00:17:49.780Z,8.47
2018-09-02T00:20:17.608Z,9.17
2018-09-02T00:22:45.176Z,10.07
2018-09-02T00:25:13.084Z,9.70
2018-09-02T00:27:40.746Z,9.43
2018-09-02T00:30:08.852Z,9.20
2018-09-02T00:32:36.770Z,8.97
2018-09-02T00:35:04.416Z,9.30
2018-09-02T00:37:32.151Z,9.53
2018-09-02T00:39:59.836Z,10.53
2018-09-02T00:42:27.595Z,9.53
2018-09-02T00:44:55.556Z,9.53
2018-09-02T00:47:23.177Z,9.07
2018-09-02T00:49:50.824Z,9.63
2018-09-02T00:52:18.475Z,9.03
2018-09-02T00:54:46.187Z,8.60
2018-09-02T00:57:14.010Z,8.40
2018-09-02T00:59:41.660Z,8.23
2018-09-02T01:02:09.528Z,8.80
2018-09-02T01:04:37.133Z,8.87
2018-09-02T01:07:05.610Z,8.70
2018-09-02T01:09:33.413Z,10.17
2018-09-02T01:12:02.511Z,8.37
2018-09-02T01:14:30.201Z,8.53
2018-09-02T01:16:57.802Z,10.20
2018-09-02T01:19:26.092Z,9.83
2018-09-02T01:21:53.727Z,10.80
2018-09-02T01:24:21.313Z,10.43
2018-09-02T01:26:50.063Z,10.33
2018-09-02T01:29:17.765Z,10.73
2018-09-02T01:31:45.480Z,10.20
2018-09-02T01:34:13.063Z,9.70
2018-09-02T01:36:40.748Z,9.90
2018-09-02T01:39:08.660Z,9.80
2018-09-02T01:41:36.300Z,10.37
2018-09-02T01:44:03.836Z,10.07
2018-09-02T01:46:31.527Z,10.47
2018-09-02T01:48:59.119Z,9.43
2018-09-02T01:51:26.728Z,11.13
2018-09-02T01:53:54.711Z,10.97
2018-09-02T01:56:22.264Z,10.53
2018-09-02T01:58:50.132Z,11.17
2018-09-02T02:01:18.735Z,10.90
2018-09-02T02:03:46.700Z,12.07
2018-09-02T02:06:14.259Z,11.13
2018-09-02T02:08:41.907Z,11.50
2018-09-02T02:11:09.648Z,11.50
2018-09-02T02:13:37.426Z,11.77
2018-09-02T02:16:05.436Z,10.97
2018-09-02T02:18:33.296Z,10.90
2018-09-02T02:21:01.509Z,12.53
2018-09-02T02:23:29.175Z,12.30
2018-09-02T02:25:56.812Z,12.57
2018-09-02T02:28:24.444Z,12.50
2018-09-02T02:30:52.101Z,11.47
2018-09-02T02:33:19.675Z,11.83
2018-09-02T02:35:47.243Z,13.40
2018-09-02T02:38:15.013Z,13.30
2018-09-02T02:40:42.622Z,11.40
2018-09-02T02:43:10.234Z,11.60
2018-09-02T02:45:37.915Z,11.67
2018-09-02T02:48:05.467Z,12.27
2018-09-02T02:50:33.384Z,12.00
2018-09-02T02:53:02.555Z,12.23
2018-09-02T02:55:31.031Z,13.03
2018-09-02T02:57:59.251Z,11.57
2018-09-02T03:00:26.843Z,12.70
2018-09-02T03:02:54.561Z,12.27
2018-09-02T03:05:22.389Z,13.60
2018-09-02T03:07:50.271Z,13.20
2018-09-02T03:10:18.040Z,13.70
2018-09-02T03:12:45.828Z,13.90
2018-09-02T03:15:13.395Z,14.03
2018-09-02T03:17:41.000Z,15.00
2018-09-02T03:20:08.704Z,13.13
2018-09-02T03:22:36.384Z,14.40
2018-09-02T03:25:04.093Z,13.77
2018-09-02T03:27:31.808Z,14.97
2018-09-02T03:29:59.732Z,13.73
2018-09-02T03:32:27.257Z,13.90
2018-09-02T03:34:55.123Z,13.30
2018-09-02T03:37:22.784Z,13.33
2018-09-02T03:39:50.504Z,13.50
2018-09-02T03:42:18.126Z,12.90
2018-09-02T03:44:46.838Z,12.00
2018-09-02T03:47:14.472Z,12.00
2018-09-02T03:49:42.116Z,11.10
2018-09-02T03:52:10.314Z,12.00
2018-09-02T03:54:38.096Z,11.80
2018-09-02T03:57:05.790Z,12.23
2018-09-02T03:59:33.532Z,12.20
2018-09-02T04:02:01.283Z,11.70
2018-09-02T04:04:29.684Z,10.43
2018-09-02T04:06:57.417Z,10.97
2018-09-02T04:09:24.974Z,11.23
2018-09-02T04:11:52.732Z,11.00
2018-09-02T04:14:20.768Z,12.50
2018-09-02T04:16:48.535Z,11.10
2018-09-02T04:19:16.285Z,11.60
2018-09-02T04:21:44.067Z,12.33
2018-09-02T04:24:12.085Z,12.10
2018-09-02T04:26:39.771Z,11.20
2018-09-02T04:29:07.570Z,11.07
2018-09-02T04:31:35.459Z,11.70
2018-09-02T04:34:03.132Z,11.87
2018-09-02T04:36:30.778Z,11.77
2018-09-02T04:38:58.571Z,12.00
2018-09-02T04:41:26.155Z,11.43
2018-09-02T04:43:53.699Z,12.00
2018-09-02T04:46:21.547Z,12.83
2018-09-02T04:48:49.223Z,12.17
2018-09-02T04:51:16.779Z,12.70
2018-09-02T04:53:44.348Z,12.30
2018-09-02T04:56:12.088Z,12.70
2018-09-02T04:58:39.675Z,11.70
2018-09-02T05:01:07.399Z,12.20
2018-09-02T05:03:34.991Z,11.93
2018-09-02T05:06:02.806Z,12.30
2018-09-02T05:08:30.348Z,12.13
2018-09-02T05:10:58.177Z,12.43
2018-09-02T05:13:25.713Z,12.10
2018-09-02T05:15:53.368Z,11.70
2018-09-02T05:18:20.974Z,12.90
2018-09-02T05:20:48.692Z,12.87
2018-09-02T05:23:16.441Z,11.93
2018-09-02T05:25:44.050Z,12.73
2018-09-02T05:28:11.657Z,11.60
2018-09-02T05:30:39.419Z,12.80
2018-09-02T05:33:07.015Z,12.17
2018-09-02T05:35:34.785Z,11.43
2018-09-02T05:38:02.358Z,12.50
2018-09-02T05:40:29.999Z,11.27
2018-09-02T05:42:57.667Z,11.70
2018-09-02T05:45:26.013Z,12.03
2018-09-02T05:47:54.491Z,12.60
2018-09-02T05:50:22.164Z,12.40
2018-09-02T05:52:49.714Z,12.20
2018-09-02T05:55:18.635Z,11.40
2018-09-02T05:57:46.841Z,12.37
2018-09-02T06:00:14.427Z,11.83
2018-09-02T06:02:42.219Z,12.43
2018-09-02T06:05:09.943Z,10.17
2018-09-02T06:07:38.195Z,11.00
2018-09-02T06:10:05.948Z,12.03
2018-09-02T06:12:33.691Z,11.40
2018-09-02T06:15:01.435Z,12.07
2018-09-02T06:17:30.120Z,11.20
2018-09-02T06:19:57.800Z,11.63
2018-09-02T06:22:25.569Z,10.70
2018-09-02T06:24:53.231Z,11.47
2018-09-02T06:27:21.176Z,11.33
2018-09-02T06:29:49.076Z,11.93
2018-09-02T06:32:16.708Z,11.77
2018-09-02T06:34:44.332Z,11.73
2018-09-02T06:37:11.932Z,11.90
2018-09-02T06:39:39.794Z,11.80
2018-09-02T06:42:07.902Z,12.50
2018-09-02T06:44:35.692Z,12.33
2018-09-02T06:47:03.352Z,11.30
2018-09-02T06:49:31.028Z,12.13
2018-09-02T06:51:58.693Z,11.80
2018-09-02T06:54:26.367Z,10.37
2018-09-02T06:56:53.924Z,12.60
2018-09-02T06:59:21.716Z,15.60
2018-09-02T07:01:49.927Z,14.43
2018-09-02T07:04:17.649Z,14.60
2018-09-02T07:06:45.368Z,13.37
2018-09-02T07:09:12.948Z,12.10
2018-09-02T07:11:40.692Z,12.20
2018-09-02T07:14:08.239Z,12.07
2018-09-02T07:16:35.873Z,12.17
2018-09-02T07:19:03.472Z,12.50
2018-09-02T07:21:31.048Z,11.70
2018-09-02T07:23:58.568Z,11.60
2018-09-02T07:26:26.455Z,11.87
2018-09-02T07:28:54.314Z,12.53
2018-09-02T07:31:22.024Z,12.30
2018-09-02T07:33:49.508Z,12.17
2018-09-02T07:36:17.167Z,12.20
2018-09-02T07:38:44.945Z,13.33
2018-09-02T07:41:12.726Z,12.90
2018-09-02T07:43:41.040Z,15.27
2018-09-02T07:46:08.543Z,11.97
2018-09-02T07:48:36.332Z,12.33
2018-09-02T07:51:04.313Z,13.17
2018-09-02T07:53:32.344Z,12.13
2018-09-02T07:55:59.892Z,13.13
2018-09-02T07:58:28.593Z,12.40
2018-09-02T08:00:57.160Z,12.70
2018-09-02T08:03:25.805Z,12.90
2018-09-02T08:05:54.315Z,13.27
2018-09-02T08:08:22.052Z,14.07
2018-09-02T08:10:49.796Z,12.73
2018-09-02T08:13:18.265Z,14.23
2018-09-02T08:15:46.108Z,13.70
2018-09-02T08:18:14.448Z,13.47
2018-09-02T08:20:42.224Z,14.40
2018-09-02T08:23:09.867Z,13.70
2018-09-02T08:25:37.481Z,13.90
2018-09-02T08:28:06.589Z,14.60
2018-09-02T08:30:34.259Z,15.40
2018-09-02T08:33:02.027Z,13.80
2018-09-02T08:35:29.703Z,13.20
2018-09-02T08:37:57.376Z,13.90
2018-09-02T08:40:25.161Z,12.10
2018-09-02T08:42:54.480Z,12.60
2018-09-02T08:45:22.120Z,11.00
2018-09-02T08:47:51.094Z,10.73
2018-09-02T08:50:19.675Z,12.00
2018-09-02T08:52:47.220Z,12.30
2018-09-02T08:55:15.078Z,12.43
2018-09-02T08:57:42.800Z,11.23
2018-09-02T09:00:12.057Z,13.00
2018-09-02T09:02:39.867Z,17.10
2018-09-02T09:05:08.933Z,12.00
2018-09-02T09:07:36.792Z,11.43
2018-09-02T09:10:05.188Z,10.90
2018-09-02T09:12:33.356Z,11.20
2018-09-02T09:15:01.161Z,11.33
2018-09-02T09:17:28.951Z,9.97
2018-09-02T09:19:56.540Z,10.20
2018-09-02T09:22:24.153Z,10.50
2018-09-02T09:24:51.937Z,11.00
2018-09-02T09:27:19.635Z,9.70
2018-09-02T09:29:48.339Z,9.80
2018-09-02T09:32:16.752Z,9.20
2018-09-02T09:34:44.588Z,9.70
2018-09-02T09:37:12.307Z,9.30
2018-09-02T09:39:39.900Z,7.50
2018-09-02T09:42:07.669Z,7.60
2018-09-02T09:44:35.413Z,7.57
2018-09-02T09:47:03.113Z,7.20
2018-09-02T09:49:36.096Z,8.10
2018-09-02T09:52:04.755Z,8.23
2018-09-02T09:54:32.419Z,7.83
2018-09-02T09:57:00.479Z,7.37
2018-09-02T09:59:28.285Z,8.00
2018-09-02T10:01:55.952Z,7.23
2018-09-02T10:04:28.235Z,8.40
2018-09-02T10:06:56.203Z,7.20
2018-09-02T10:09:23.941Z,7.50
2018-09-02T10:11:51.772Z,7.50
2018-09-02T10:14:19.467Z,7.30
2018-09-02T10:16:47.078Z,8.43
2018-09-02T10:19:14.876Z,8.23
2018-09-02T10:21:42.688Z,7.53
2018-09-02T10:24:10.908Z,8.20
2018-09-02T10:26:38.544Z,8.03
2018-09-02T10:29:06.543Z,8.90
2018-09-02T10:31:34.201Z,8.33
2018-09-02T10:34:02.055Z,7.93
2018-09-02T10:36:29.985Z,7.93
2018-09-02T10:38:57.803Z,8.73
2018-09-02T10:41:25.484Z,8.63
2018-09-02T10:43:54.161Z,7.90
2018-09-02T10:46:21.768Z,7.70
2018-09-02T10:48:49.542Z,7.83
2018-09-02T10:51:17.128Z,7.93
2018-09-02T10:53:44.794Z,8.40
2018-09-02T10:56:12.712Z,7.80
2018-09-02T10:58:40.460Z,8.33
2018-09-02T11:01:08.006Z,8.00
2018-09-02T11:03:35.749Z,8.77
2018-09-02T11:06:03.572Z,9.20
2018-09-02T11:08:31.147Z,8.37
2018-09-02T11:10:59.084Z,9.70
2018-09-02T11:13:27.755Z,10.60
2018-09-02T11:15:55.858Z,9.43
2018-09-02T11:18:23.353Z,9.60
2018-09-02T11:20:51.340Z,9.40
2018-09-02T11:23:19.112Z,9.43
2018-09-02T11:25:46.844Z,9.90
2018-09-02T11:28:14.639Z,9.30
2018-09-02T11:30:42.277Z,9.60
2018-09-02T11:33:09.966Z,9.80
2018-09-02T11:35:38.279Z,10.73
2018-09-02T11:38:06.413Z,10.07
2018-09-02T11:40:34.132Z,10.50
2018-09-02T11:43:01.939Z,10.07
2018-09-02T11:45:29.613Z,10.03
2018-09-02T11:47:57.438Z,10.37
2018-09-02T11:50:25.277Z,10.07
2018-09-02T11:52:53.715Z,11.23
2018-09-02T11:55:21.482Z,10.30
2018-09-02T11:57:49.335Z,11.50
2018-09-02T12:00:17.064Z,11.83
2018-09-02T12:02:45.236Z,12.13
2018-09-02T12:05:12.920Z,10.40
2018-09-02T12:07:41.177Z,12.03
2018-09-02T12:10:09.062Z,11.10
2018-09-02T12:12:37.295Z,11.53
2018-09-02T12:15:05.193Z,12.10
2018-09-02T12:17:33.211Z,12.20
2018-09-02T12:20:00.836Z,12.60
2018-09-02T12:22:28.536Z,12.07
2018-09-02T12:24:56.245Z,12.67
2018-09-02T12:27:23.962Z,12.57
2018-09-02T12:29:51.564Z,12.00
2018-09-02T12:32:19.236Z,12.93
2018-09-02T12:34:46.947Z,12.00
2018-09-02T12:37:15.364Z,13.20
2018-09-02T12:39:43.100Z,13.07
2018-09-02T12:42:10.984Z,13.10
2018-09-02T12:44:38.635Z,13.50
2018-09-02T12:47:06.890Z,13.67
2018-09-02T12:49:34.667Z,13.40
2018-09-02T12:52:02.482Z,13.83
2018-09-02T12:54:31.101Z,14.57
2018-09-02T12:56:58.871Z,12.87
2018-09-02T12:59:26.652Z,13.93
2018-09-02T13:01:54.260Z,14.60
2018-09-02T13:04:22.107Z,13.47
2018-09-02T13:06:49.847Z,13.40
2018-09-02T13:09:17.611Z,13.33
2018-09-02T13:11:45.439Z,13.90
2018-09-02T13:14:13.224Z,13.87
2018-09-02T13:16:41.059Z,13.30
2018-09-02T13:19:08.865Z,13.77
2018-09-02T13:21:36.472Z,12.90
2018-09-02T13:24:04.636Z,13.93
2018-09-02T13:26:32.409Z,13.73
2018-09-02T13:29:00.405Z,12.90
2018-09-02T13:31:28.232Z,13.70
2018-09-02T13:33:55.920Z,12.97
2018-09-02T13:36:23.501Z,13.07
2018-09-02T13:38:51.205Z,13.60
2018-09-02T13:41:18.982Z,13.53
2018-09-02T13:43:46.684Z,14.07
2018-09-02T13:46:14.483Z,14.67
2018-09-02T13:48:42.278Z,13.97
2018-09-02T13:51:09.885Z,13.67
2018-09-02T13:53:37.589Z,14.87
2018-09-02T13:56:05.479Z,13.73
2018-09-02T13:58:33.763Z,15.00
2018-09-02T14:01:01.540Z,13.90
2018-09-02T14:03:29.285Z,14.37
2018-09-02T14:05:57.171Z,13.60
2018-09-02T14:08:24.951Z,11.70
2018-09-02T14:10:52.817Z,12.87
2018-09-02T14:13:20.398Z,12.40
2018-09-02T14:15:48.235Z,12.33
2018-09-02T14:18:20.176Z,12.57
2018-09-02T14:20:49.169Z,11.67
2018-09-02T14:23:16.994Z,11.37
2018-09-02T14:25:44.888Z,11.57
2018-09-02T14:28:12.689Z,10.37
2018-09-02T14:30:40.468Z,10.30
2018-09-02T14:33:08.064Z,10.27
2018-09-02T14:35:35.657Z,9.80
2018-09-02T14:38:03.352Z,10.17
2018-09-02T14:40:31.091Z,8.90
2018-09-02T14:42:58.749Z,11.70
2018-09-02T14:45:26.520Z,11.80
2018-09-02T14:47:54.171Z,10.43
2018-09-02T14:50:22.048Z,9.87
2018-09-02T14:52:49.885Z,11.10
2018-09-02T14:55:17.628Z,10.97
2018-09-02T14:57:45.894Z,13.40
2018-09-02T15:00:13.569Z,11.50
2018-09-02T15:02:41.486Z,10.27
2018-09-02T15:05:10.477Z,10.13
2018-09-02T15:07:38.844Z,11.23
2018-09-02T15:10:06.508Z,9.47
2018-09-02T15:12:34.241Z,10.10
2018-09-02T15:15:02.640Z,11.50
2018-09-02T15:17:30.328Z,9.30
2018-09-02T15:19:58.011Z,10.60
2018-09-02T15:22:26.412Z,12.10
2018-09-02T15:24:54.431Z,12.80
2018-09-02T15:27:22.151Z,10.80
2018-09-02T15:29:49.788Z,11.30
2018-09-02T15:32:17.478Z,9.20
2018-09-02T15:34:45.151Z,8.90
2018-09-02T15:37:12.955Z,9.03
2018-09-02T15:39:41.312Z,9.40
2018-09-02T15:42:09.281Z,9.70
2018-09-02T15:44:37.209Z,9.60
2018-09-02T15:47:04.868Z,8.77
2018-09-02T15:49:33.064Z,9.40
2018-09-02T15:52:00.728Z,8.93
2018-09-02T15:54:28.424Z,9.10
2018-09-02T15:56:56.040Z,9.40
2018-09-02T15:59:24.134Z,9.10
2018-09-02T16:01:52.073Z,8.53
2018-09-02T16:04:19.901Z,8.43
2018-09-02T16:06:47.801Z,8.87
2018-09-02T16:09:15.625Z,9.10
2018-09-02T16:11:43.537Z,9.20
2018-09-02T16:14:11.508Z,9.57
2018-09-02T16:16:40.098Z,8.57
2018-09-02T16:19:07.781Z,8.63
2018-09-02T16:21:35.529Z,8.40
2018-09-02T16:24:03.575Z,7.90
2018-09-02T16:26:31.499Z,8.77
2018-09-02T16:28:59.264Z,8.90
2018-09-02T16:31:26.941Z,9.27
2018-09-02T16:33:55.056Z,10.97
2018-09-02T16:36:22.978Z,10.33
2018-09-02T16:38:50.759Z,9.20
2018-09-02T16:41:18.616Z,8.07
2018-09-02T16:43:46.319Z,8.27
2018-09-02T16:46:14.075Z,8.30
2018-09-02T16:48:42.505Z,7.70
2018-09-02T16:51:10.156Z,8.00
2018-09-02T16:53:38.065Z,8.50
2018-09-02T16:56:06.165Z,8.30
2018-09-02T16:58:33.917Z,9.10
2018-09-02T17:01:01.470Z,8.40
2018-09-02T17:03:32.296Z,8.53
2018-09-02T17:06:00.092Z,8.00
2018-09-02T17:08:27.701Z,9.30
2018-09-02T17:10:56.271Z,8.73
2018-09-02T17:13:24.320Z,8.40
2018-09-02T17:15:52.261Z,7.80
2018-09-02T17:18:20.037Z,8.27
2018-09-02T17:20:49.446Z,7.60
2018-09-02T17:23:17.633Z,8.20
2018-09-02T17:25:45.654Z,9.20
2018-09-02T17:28:13.629Z,8.83
2018-09-02T17:30:42.071Z,9.43
2018-09-02T17:33:11.383Z,9.03
2018-09-02T17:35:39.083Z,8.93
2018-09-02T17:38:06.934Z,8.97
2018-09-02T17:40:34.859Z,8.97
2018-09-02T17:43:02.596Z,9.27
2018-09-02T17:45:30.935Z,9.10
2018-09-02T17:47:58.662Z,10.40
2018-09-02T17:50:26.499Z,8.57
2018-09-02T17:52:54.335Z,10.70
2018-09-02T17:55:22.567Z,9.50
2018-09-02T17:57:50.440Z,9.30
2018-09-02T18:00:28.092Z,9.60
2018-09-02T18:02:56.469Z,9.70
2018-09-02T18:05:24.284Z,8.93
2018-09-02T18:07:52.547Z,8.90
2018-09-02T18:10:20.247Z,8.50
2018-09-02T18:12:47.988Z,9.20
2018-09-02T18:15:15.817Z,9.70
2018-09-02T18:17:43.674Z,9.80
2018-09-02T18:20:11.524Z,9.40
2018-09-02T18:22:39.432Z,9.70
2018-09-02T18:25:07.287Z,9.70
2018-09-02T18:27:37.590Z,8.93
2018-09-02T18:30:06.508Z,10.17
2018-09-02T18:32:34.248Z,8.90
2018-09-02T18:35:04.448Z,8.17
2018-09-02T18:37:34.030Z,8.30
2018-09-02T18:40:02.292Z,8.10
2018-09-02T18:42:30.478Z,8.90
2018-09-02T18:44:59.163Z,8.50
2018-09-02T18:47:27.169Z,9.50
2018-09-02T18:49:55.619Z,10.43
2018-09-02T18:52:23.898Z,8.93
2018-09-02T18:54:52.080Z,9.30
2018-09-02T18:57:19.955Z,9.13
2018-09-02T18:59:48.741Z,9.63
2018-09-02T19:02:17.125Z,9.80
2018-09-02T19:04:45.305Z,9.43
2018-09-02T19:07:13.205Z,9.77
2018-09-02T19:09:41.375Z,10.10
2018-09-02T19:12:09.632Z,10.17
2018-09-02T19:14:37.811Z,10.10
2018-09-02T19:17:06.298Z,10.10
2018-09-02T19:19:35.199Z,10.07
2018-09-02T19:22:03.448Z,11.17
2018-09-02T19:24:32.061Z,10.93
2018-09-02T19:27:00.134Z,10.53
2018-09-02T19:29:27.905Z,10.53
2018-09-02T19:31:55.557Z,10.63
2018-09-02T19:34:23.647Z,10.63
2018-09-02T19:36:51.404Z,11.10
2018-09-02T19:39:19.376Z,11.37
2018-09-02T19:41:47.296Z,12.03
2018-09-02T19:44:15.798Z,13.20
2018-09-02T19:46:43.706Z,12.87
2018-09-02T19:49:12.163Z,12.80
2018-09-02T19:51:40.653Z,12.97
2018-09-02T19:54:09.090Z,13.23
2018-09-02T19:56:37.353Z,12.80
2018-09-02T19:59:06.028Z,14.40
2018-09-02T20:01:34.029Z,12.63
2018-09-02T20:04:01.744Z,14.47
2018-09-02T20:06:29.765Z,15.57
2018-09-02T20:08:57.485Z,14.67
2018-09-02T20:11:25.320Z,14.70
2018-09-02T20:13:52.995Z,13.53
2018-09-02T20:16:21.016Z,14.80
2018-09-02T20:18:48.768Z,14.77
2018-09-02T20:21:16.411Z,15.87
2018-09-02T20:23:44.161Z,16.47
2018-09-02T20:26:11.879Z,16.17
2018-09-02T20:28:39.625Z,15.60
2018-09-02T20:31:07.528Z,17.83
2018-09-02T20:33:35.499Z,16.90
2018-09-02T20:36:03.249Z,17.17
2018-09-02T20:38:31.833Z,17.63
2018-09-02T20:40:59.609Z,17.43
2018-09-02T20:43:27.364Z,17.30
2018-09-02T20:45:55.606Z,16.63
2018-09-02T20:48:23.201Z,18.83
2018-09-02T20:50:51.773Z,18.43
2018-09-02T20:53:19.511Z,19.00
2018-09-02T20:55:47.389Z,19.27
2018-09-02T20:58:15.068Z,18.70
2018-09-02T21:00:43.413Z,18.83
2018-09-02T21:03:11.745Z,19.97
2018-09-02T21:05:40.349Z,17.47
2018-09-02T21:08:08.135Z,18.03
2018-09-02T21:10:36.401Z,19.43
2018-09-02T21:13:04.103Z,18.20
2018-09-02T21:15:32.000Z,18.60
2018-09-02T21:17:59.710Z,19.87
2018-09-02T21:20:27.412Z,19.00
2018-09-02T21:22:56.119Z,18.60
2018-09-02T21:25:23.920Z,17.97
2018-09-02T21:27:52.357Z,19.27
2018-09-02T21:30:19.990Z,20.53
2018-09-02T21:32:48.393Z,18.37
2018-09-02T21:35:16.151Z,19.57
2018-09-02T21:37:44.600Z,19.00
2018-09-02T21:40:12.462Z,18.87
2018-09-02T21:42:40.887Z,19.10
2018-09-02T21:45:09.512Z,19.73
2018-09-02T21:47:37.241Z,21.07
2018-09-02T21:50:05.339Z,20.13
2018-09-02T21:52:33.064Z,20.10
2018-09-02T21:55:00.849Z,19.10
2018-09-02T21:57:29.588Z,20.40
2018-09-02T21:59:57.317Z,19.00
2018-09-02T22:02:25.125Z,17.80
2018-09-02T22:04:52.913Z,17.60
2018-09-02T22:07:20.633Z,16.93
2018-09-02T22:09:48.177Z,17.20
2018-09-02T22:12:15.860Z,16.53
2018-09-02T22:14:43.788Z,16.83
2018-09-02T22:17:11.641Z,15.10
2018-09-02T22:19:39.533Z,15.60
2018-09-02T22:22:07.404Z,14.57
2018-09-02T22:24:35.127Z,15.90
2018-09-02T22:27:03.008Z,14.80
2018-09-02T22:29:30.904Z,14.47
2018-09-02T22:31:58.496Z,13.93
2018-09-02T22:34:26.288Z,15.70
2018-09-02T22:36:54.085Z,14.73
2018-09-02T22:39:21.784Z,14.60
2018-09-02T22:41:49.475Z,12.80
2018-09-02T22:44:17.087Z,14.70
2018-09-02T22:46:44.732Z,14.80
2018-09-02T22:49:13.201Z,15.60
2018-09-02T22:51:41.606Z,16.20
2018-09-02T22:54:09.391Z,14.47
2018-09-02T22:56:38.012Z,14.53
2018-09-02T22:59:05.810Z,15.50
2018-09-02T23:01:33.561Z,14.97
2018-09-02T23:04:02.105Z,16.40
2018-09-02T23:06:29.656Z,15.73
2018-09-02T23:08:57.296Z,16.40
2018-09-02T23:11:24.928Z,16.40
2018-09-02T23:13:52.871Z,16.83
2018-09-02T23:16:21.254Z,14.53
2018-09-02T23:18:48.825Z,15.17
2018-09-02T23:21:16.463Z,15.27
2018-09-02T23:23:45.005Z,14.20
2018-09-02T23:26:12.732Z,14.00
2018-09-02T23:28:40.519Z,14.80
2018-09-02T23:31:08.275Z,14.40
2018-09-02T23:33:35.895Z,15.23
2018-09-02T23:36:04.415Z,13.90
2018-09-02T23:38:32.008Z,14.57
2018-09-02T23:40:59.740Z,14.67
2018-09-02T23:43:27.532Z,14.57
2018-09-02T23:45:55.151Z,15.70
2018-09-02T23:48:22.847Z,14.80
2018-09-02T23:50:50.987Z,13.93
2018-09-02T23:53:18.739Z,14.00
2018-09-02T23:55:46.403Z,15.27
2018-09-02T23:58:14.348Z,16.10
